Time;durP1;ratioP1;P1;durP2;ratioP2;P2;SDS_P1;SDS_P2;PMS_P1;PMS_P2;Temp;Humidity;BMP_temperature;BMP_pressure;BME280_temperature;BME280_humidity;BME280_pressure;Samples;Min_cycle;Max_cycle;Signal;HPM_P1;HPM_P2
2022/07/07 00:02:09;;;;;;;;;;;16.70;99.90;;;;;;5034511;28;19916;-83
2022/07/07 00:04:35;;;;;;;;;;;16.70;99.90;;;;;;5017588;28;20392;-85
2022/07/07 00:07:00;;;;;;;;;;;16.70;99.90;;;;;;5000437;28;19921;-85
2022/07/07 00:09:27;;;;;;;;;;;16.60;99.90;;;;;;5034241;28;20415;-83
2022/07/07 00:11:53;;;;;;;;;;;16.70;99.90;;;;;;5034073;28;19917;-83
2022/07/07 00:14:19;;;;;;;;;;;16.70;99.90;;;;;;5033954;28;19983;-83
2022/07/07 00:16:44;;;;;;;;;;;16.60;99.90;;;;;;5017295;28;20677;-83
2022/07/07 00:19:10;;;;;;;;;;;16.70;99.90;;;;;;5034216;28;19997;-84
2022/07/07 00:21:35;;;;;;;;;;;16.70;99.90;;;;;;5033907;28;20357;-84
2022/07/07 00:24:01;;;;;;;;;;;16.70;99.90;;;;;;5033681;28;20407;-83
2022/07/07 00:26:30;;;;;;;;;;;16.70;99.90;;;;;;5034322;28;19952;-84
2022/07/07 00:28:55;;;;;;;;;;;16.70;99.90;;;;;;5031801;28;19917;-83
2022/07/07 00:31:21;;;;;;;;;;;16.70;99.90;;;;;;5033608;28;19921;-84
2022/07/07 00:33:46;;;;;;;;;;;16.70;99.90;;;;;;5032829;28;19988;-84
2022/07/07 00:36:12;;;;;;;;;;;16.60;99.90;;;;;;5034001;28;19924;-83
2022/07/07 00:38:38;;;;;;;;;;;16.60;99.90;;;;;;5033015;28;19924;-84
2022/07/07 00:41:03;;;;;;;;;;;16.60;99.90;;;;;;5033573;28;19920;-83
2022/07/07 00:43:36;;;;;;;;;;;16.60;99.90;;;;;;5033586;28;19974;-82
2022/07/07 00:46:02;;;;;;;;;;;16.60;99.90;;;;;;5033446;28;19964;-82
2022/07/07 00:48:28;;;;;;;;;;;16.60;99.90;;;;;;5033498;28;19916;-82
2022/07/07 00:50:53;;;;;;;;;;;16.60;99.90;;;;;;5033039;28;19916;-80
2022/07/07 00:53:19;;;;;;;;;;;16.50;99.90;;;;;;5033229;28;19995;-80
2022/07/07 00:55:45;;;;;;;;;;;16.50;99.90;;;;;;5032867;28;19917;-81
2022/07/07 00:58:10;;;;;;;;;;;16.50;99.90;;;;;;5033679;28;19917;-81
2022/07/07 01:00:36;;;;;;;;;;;16.40;99.90;;;;;;5032501;28;19961;-81
2022/07/07 01:03:02;;;;;;;;;;;16.30;99.90;;;;;;5033237;28;19928;-81
2022/07/07 01:05:28;;;;;;;;;;;16.20;99.90;;;;;;5033614;28;20361;-82
2022/07/07 01:07:54;;;;;;;;;;;16.20;99.90;;;;;;5021913;28;19921;-82
2022/07/07 01:10:20;;;;;;;;;;;16.10;99.90;;;;;;5036941;28;19917;-82
2022/07/07 01:12:45;;;;;;;;;;;16.10;99.90;;;;;;5032814;28;19941;-82
2022/07/07 01:15:12;;;;;;;;;;;16.10;99.90;;;;;;5037555;28;20299;-83
2022/07/07 01:17:38;;;;;;;;;;;16.10;99.90;;;;;;5032710;28;19916;-82
2022/07/07 01:20:05;;;;;;;;;;;16.10;99.90;;;;;;5032972;28;19960;-82
2022/07/07 01:22:33;;;;;;;;;;;16.10;99.90;;;;;;5025970;28;19916;-82
2022/07/07 01:24:58;;;;;;;;;;;16.10;99.90;;;;;;5032575;28;19943;-82
2022/07/07 01:27:25;;;;;;;;;;;16.10;99.90;;;;;;5033517;28;19916;-81
2022/07/07 01:29:51;;;;;;;;;;;16.10;99.90;;;;;;5039180;28;20025;-81
2022/07/07 01:32:17;;;;;;;;;;;16.10;99.90;;;;;;5045160;28;20266;-81
2022/07/07 01:34:43;;;;;;;;;;;16.00;99.90;;;;;;5022994;28;20007;-81
2022/07/07 01:37:10;;;;;;;;;;;16.00;99.90;;;;;;5026308;28;19990;-81
2022/07/07 01:39:36;;;;;;;;;;;16.00;99.90;;;;;;5014757;28;20273;-83
2022/07/07 01:42:02;;;;;;;;;;;16.00;99.90;;;;;;5011283;28;20014;-82
2022/07/07 01:44:29;;;;;;;;;;;16.00;99.90;;;;;;5013015;28;20004;-83
2022/07/07 01:46:55;;;;;;;;;;;16.00;99.90;;;;;;5011466;28;19971;-83
2022/07/07 01:49:20;;;;;;;;;;;16.00;99.90;;;;;;5011055;28;20297;-83
2022/07/07 01:51:46;;;;;;;;;;;16.00;99.90;;;;;;5011396;28;20270;-81
2022/07/07 01:54:12;;;;;;;;;;;16.10;99.90;;;;;;5011905;28;19921;-83
2022/07/07 01:56:37;;;;;;;;;;;16.10;99.90;;;;;;5011403;28;19921;-83
2022/07/07 01:59:03;;;;;;;;;;;16.10;99.90;;;;;;5012477;28;20673;-83
2022/07/07 02:01:28;;;;;;;;;;;16.10;99.90;;;;;;5016758;28;19917;-83
2022/07/07 02:03:54;;;;;;;;;;;16.10;99.90;;;;;;5015857;28;19928;-83
2022/07/07 02:06:20;;;;;;;;;;;16.10;99.90;;;;;;5016679;28;19971;-83
2022/07/07 02:08:45;;;;;;;;;;;16.10;99.90;;;;;;5016349;28;19921;-83
2022/07/07 02:11:14;;;;;;;;;;;16.10;99.90;;;;;;5016571;28;19925;-82
2022/07/07 02:13:43;;;;;;;;;;;16.10;99.90;;;;;;5016323;28;19956;-83
2022/07/07 02:16:10;;;;;;;;;;;16.10;99.90;;;;;;5016119;28;19972;-83
2022/07/07 02:18:36;;;;;;;;;;;16.10;99.90;;;;;;5016629;28;19924;-83
2022/07/07 02:21:03;;;;;;;;;;;16.10;99.90;;;;;;5015446;28;20051;-83
2022/07/07 02:23:29;;;;;;;;;;;16.10;99.90;;;;;;5016140;28;19921;-84
2022/07/07 02:25:54;;;;;;;;;;;16.10;99.90;;;;;;5016295;28;19917;-82
2022/07/07 02:28:20;;;;;;;;;;;16.10;99.90;;;;;;5016301;28;19917;-82
2022/07/07 02:30:46;;;;;;;;;;;16.10;99.90;;;;;;5015722;28;19932;-83
2022/07/07 02:33:12;;;;;;;;;;;16.10;99.90;;;;;;5016430;28;20400;-83
2022/07/07 02:35:37;;;;;;;;;;;16.20;99.90;;;;;;5016730;28;19924;-83
2022/07/07 02:38:03;;;;;;;;;;;16.20;99.90;;;;;;5029554;28;19920;-82
2022/07/07 02:40:29;;;;;;;;;;;16.10;99.90;;;;;;5047829;28;20352;-82
2022/07/07 02:42:54;;;;;;;;;;;16.10;99.90;;;;;;5036023;28;19924;-83
2022/07/07 02:45:20;;;;;;;;;;;16.10;99.90;;;;;;5035841;28;20039;-82
2022/07/07 02:47:45;;;;;;;;;;;16.10;99.90;;;;;;5026121;28;19952;-82
2022/07/07 02:50:11;;;;;;;;;;;16.10;99.90;;;;;;5005057;28;19921;-83
2022/07/07 02:52:36;;;;;;;;;;;16.10;99.90;;;;;;5022395;28;19916;-83
2022/07/07 02:55:02;;;;;;;;;;;16.10;99.90;;;;;;5044251;28;20003;-83
2022/07/07 02:57:28;;;;;;;;;;;16.10;99.90;;;;;;5021597;28;19944;-83
2022/07/07 02:59:53;;;;;;;;;;;16.00;99.90;;;;;;5035291;28;20430;-83
2022/07/07 03:02:19;;;;;;;;;;;16.00;99.90;;;;;;5019857;28;20296;-83
2022/07/07 03:04:44;;;;;;;;;;;16.00;99.90;;;;;;5035424;28;20354;-83
2022/07/07 03:07:10;;;;;;;;;;;16.00;99.90;;;;;;5035634;28;20373;-82
2022/07/07 03:09:35;;;;;;;;;;;16.00;99.90;;;;;;5035601;28;20400;-83
2022/07/07 03:12:01;;;;;;;;;;;16.00;99.90;;;;;;5035270;28;19920;-82
2022/07/07 03:14:26;;;;;;;;;;;16.00;99.90;;;;;;5052602;28;19917;-82
2022/07/07 03:16:52;;;;;;;;;;;16.00;99.90;;;;;;5051881;28;19917;-82
2022/07/07 03:19:17;;;;;;;;;;;16.00;99.90;;;;;;5052638;28;19925;-82
2022/07/07 03:21:43;;;;;;;;;;;16.00;99.90;;;;;;5035368;28;19967;-82
2022/07/07 03:24:09;;;;;;;;;;;15.90;99.90;;;;;;5051542;28;20389;-82
2022/07/07 03:26:34;;;;;;;;;;;16.00;99.90;;;;;;5035554;28;19916;-81
2022/07/07 03:29:00;;;;;;;;;;;16.00;99.90;;;;;;5050905;28;19924;-81
2022/07/07 03:31:25;;;;;;;;;;;15.90;99.90;;;;;;5035042;28;19916;-81
2022/07/07 03:33:51;;;;;;;;;;;15.90;99.90;;;;;;5032711;28;19920;-82
2022/07/07 03:36:17;;;;;;;;;;;15.80;99.90;;;;;;5051739;28;19920;-82
2022/07/07 03:38:42;;;;;;;;;;;15.80;99.90;;;;;;5034273;28;19968;-83
2022/07/07 03:41:08;;;;;;;;;;;15.80;99.90;;;;;;5048200;28;20011;-83
2022/07/07 03:43:33;;;;;;;;;;;15.80;99.90;;;;;;5040587;28;19921;-83
2022/07/07 03:45:59;;;;;;;;;;;15.80;99.90;;;;;;5022861;28;20011;-82
2022/07/07 03:48:24;;;;;;;;;;;15.80;99.90;;;;;;5038369;28;19939;-82
2022/07/07 03:50:50;;;;;;;;;;;15.70;99.90;;;;;;5031553;28;19924;-82
2022/07/07 03:53:15;;;;;;;;;;;15.70;99.90;;;;;;5044454;28;19917;-82
2022/07/07 03:55:41;;;;;;;;;;;15.60;99.90;;;;;;5034735;28;20710;-82
2022/07/07 03:58:06;;;;;;;;;;;15.60;99.90;;;;;;5033740;28;20284;-82
2022/07/07 04:00:32;;;;;;;;;;;15.70;99.90;;;;;;5034446;28;19971;-83
2022/07/07 04:02:57;;;;;;;;;;;15.60;99.90;;;;;;5033630;28;19916;-83
2022/07/07 04:05:23;;;;;;;;;;;15.60;99.90;;;;;;5045274;28;20019;-83
2022/07/07 04:07:49;;;;;;;;;;;15.60;99.90;;;;;;5030435;28;19917;-82
2022/07/07 04:10:15;;;;;;;;;;;15.60;99.90;;;;;;5034201;28;19916;-82
2022/07/07 04:12:40;;;;;;;;;;;15.50;99.90;;;;;;5021926;28;20004;-83
2022/07/07 04:15:06;;;;;;;;;;;15.50;99.90;;;;;;5033478;28;20000;-83
2022/07/07 04:17:32;;;;;;;;;;;15.60;99.90;;;;;;5039049;28;19967;-83
2022/07/07 04:19:58;;;;;;;;;;;15.50;99.90;;;;;;5033981;28;19916;-82
2022/07/07 04:22:23;;;;;;;;;;;15.60;99.90;;;;;;5034560;28;20312;-83
2022/07/07 04:24:49;;;;;;;;;;;15.50;99.90;;;;;;5048452;28;19921;-83
2022/07/07 04:27:15;;;;;;;;;;;15.60;99.90;;;;;;5043569;28;19918;-86
2022/07/07 04:29:40;;;;;;;;;;;15.50;99.90;;;;;;5033254;28;19917;-82
2022/07/07 04:32:06;;;;;;;;;;;15.50;99.90;;;;;;5032901;28;19971;-83
2022/07/07 04:34:31;;;;;;;;;;;15.50;99.90;;;;;;5030760;28;19935;-82
2022/07/07 04:36:58;;;;;;;;;;;15.50;99.90;;;;;;5024334;28;20015;-84
2022/07/07 04:39:23;;;;;;;;;;;15.50;99.90;;;;;;5033723;28;19925;-83
2022/07/07 04:41:49;;;;;;;;;;;15.50;99.90;;;;;;5035691;28;19917;-83
2022/07/07 04:44:14;;;;;;;;;;;15.50;99.90;;;;;;5033746;28;20324;-83
2022/07/07 04:46:40;;;;;;;;;;;15.50;99.90;;;;;;5033629;28;20410;-83
2022/07/07 04:49:05;;;;;;;;;;;15.50;99.90;;;;;;5033150;28;20368;-84
2022/07/07 04:51:31;;;;;;;;;;;15.60;99.90;;;;;;5033597;28;19921;-84
2022/07/07 04:53:56;;;;;;;;;;;15.60;99.90;;;;;;5016783;28;19971;-84
2022/07/07 04:56:22;;;;;;;;;;;15.60;99.90;;;;;;5030576;28;19916;-84
2022/07/07 04:58:48;;;;;;;;;;;15.60;99.90;;;;;;5033395;28;20414;-84
2022/07/07 05:01:13;;;;;;;;;;;15.60;99.90;;;;;;5033480;28;19917;-84
2022/07/07 05:03:39;;;;;;;;;;;15.60;99.90;;;;;;5009871;28;19921;-84
2022/07/07 05:06:05;;;;;;;;;;;15.60;99.90;;;;;;5033349;28;19917;-84
2022/07/07 05:08:30;;;;;;;;;;;15.60;99.90;;;;;;5027667;28;19928;-84
2022/07/07 05:10:56;;;;;;;;;;;15.50;99.90;;;;;;5032899;28;19924;-84
2022/07/07 05:13:21;;;;;;;;;;;15.50;99.90;;;;;;5030650;28;19921;-85
2022/07/07 05:15:48;;;;;;;;;;;15.50;99.90;;;;;;5047383;28;20316;-84
2022/07/07 05:18:14;;;;;;;;;;;15.60;99.90;;;;;;5011050;28;19917;-84
2022/07/07 05:20:40;;;;;;;;;;;15.40;99.90;;;;;;5033653;28;19917;-84
2022/07/07 05:23:06;;;;;;;;;;;15.40;99.90;;;;;;5033072;28;19923;-84
2022/07/07 05:25:31;;;;;;;;;;;15.30;99.90;;;;;;5045741;28;19963;-84
2022/07/07 05:27:57;;;;;;;;;;;15.30;99.90;;;;;;5032938;28;19931;-84
2022/07/07 05:30:22;;;;;;;;;;;15.30;99.90;;;;;;5033066;28;19916;-84
2022/07/07 05:32:48;;;;;;;;;;;15.30;99.90;;;;;;5033529;28;19970;-84
2022/07/07 05:35:14;;;;;;;;;;;15.30;99.90;;;;;;5034356;28;19999;-84
2022/07/07 05:37:42;;;;;;;;;;;15.30;99.90;;;;;;5045695;28;19928;-85
2022/07/07 05:40:08;;;;;;;;;;;15.30;99.90;;;;;;5033701;28;20030;-84
2022/07/07 05:42:33;;;;;;;;;;;15.30;99.90;;;;;;5026709;28;20008;-83
2022/07/07 05:44:59;;;;;;;;;;;15.20;99.90;;;;;;5018283;28;19957;-83
2022/07/07 05:47:25;;;;;;;;;;;15.30;99.90;;;;;;5022890;28;19921;-84
2022/07/07 05:49:50;;;;;;;;;;;15.30;99.90;;;;;;5022902;28;19924;-83
2022/07/07 05:52:16;;;;;;;;;;;15.30;99.90;;;;;;5021414;28;20474;-84
2022/07/07 05:54:41;;;;;;;;;;;15.40;99.90;;;;;;5043175;28;19921;-84
2022/07/07 05:57:07;;;;;;;;;;;15.50;99.90;;;;;;5046426;28;20005;-83
2022/07/07 05:59:33;;;;;;;;;;;15.60;99.90;;;;;;5020590;28;19966;-83
2022/07/07 06:01:58;;;;;;;;;;;15.60;99.90;;;;;;5036596;28;19917;-83
2022/07/07 06:04:26;;;;;;;;;;;15.70;99.90;;;;;;5037181;28;19921;-84
2022/07/07 06:06:52;;;;;;;;;;;15.80;99.90;;;;;;5027787;28;20001;-84
2022/07/07 06:09:18;;;;;;;;;;;15.70;99.90;;;;;;5040304;28;19996;-85
2022/07/07 06:11:44;;;;;;;;;;;15.80;99.90;;;;;;5038946;28;19960;-84
2022/07/07 06:14:09;;;;;;;;;;;16.20;99.90;;;;;;5015509;28;20297;-84
2022/07/07 06:16:38;;;;;;;;;;;16.70;99.90;;;;;;5042690;28;19916;-83
2022/07/07 06:19:04;;;;;;;;;;;16.80;99.90;;;;;;5036219;28;20296;-84
2022/07/07 06:21:30;;;;;;;;;;;16.80;99.90;;;;;;5036571;28;19917;-84
2022/07/07 06:23:55;;;;;;;;;;;16.80;99.90;;;;;;5001470;28;20249;-84
2022/07/07 06:26:21;;;;;;;;;;;17.10;99.90;;;;;;5035521;28;19985;-84
2022/07/07 06:28:47;;;;;;;;;;;17.30;99.90;;;;;;5019945;28;20057;-84
2022/07/07 06:31:12;;;;;;;;;;;17.40;99.90;;;;;;5036366;28;19916;-84
2022/07/07 06:33:38;;;;;;;;;;;17.20;99.90;;;;;;5036436;28;19948;-83
2022/07/07 06:36:04;;;;;;;;;;;17.20;99.90;;;;;;5034806;28;20001;-83
2022/07/07 06:38:29;;;;;;;;;;;17.10;99.90;;;;;;5031635;28;19920;-84
2022/07/07 06:40:58;;;;;;;;;;;17.00;99.90;;;;;;5030192;28;20313;-84
2022/07/07 06:43:24;;;;;;;;;;;16.80;99.90;;;;;;5034729;28;19986;-84
2022/07/07 06:45:50;;;;;;;;;;;16.70;99.90;;;;;;5035493;28;19920;-84
2022/07/07 06:48:16;;;;;;;;;;;16.80;99.90;;;;;;5042427;28;19923;-84
2022/07/07 06:50:41;;;;;;;;;;;17.10;99.90;;;;;;5036537;28;19921;-84
2022/07/07 06:53:07;;;;;;;;;;;17.30;99.90;;;;;;5040940;28;19923;-84
2022/07/07 06:55:33;;;;;;;;;;;17.20;99.90;;;;;;5035371;28;19923;-84
2022/07/07 06:57:58;;;;;;;;;;;16.80;99.90;;;;;;5018899;28;19917;-84
2022/07/07 07:00:24;;;;;;;;;;;16.50;99.90;;;;;;5039649;28;19925;-84
2022/07/07 07:02:50;;;;;;;;;;;16.40;99.90;;;;;;5039089;28;19913;-84
2022/07/07 07:05:16;;;;;;;;;;;16.30;99.90;;;;;;5035588;28;19921;-84
2022/07/07 07:07:42;;;;;;;;;;;16.50;99.90;;;;;;5035694;28;19920;-84
2022/07/07 07:10:08;;;;;;;;;;;17.00;99.90;;;;;;5035217;28;19917;-83
2022/07/07 07:12:33;;;;;;;;;;;17.40;99.90;;;;;;5035948;28;19916;-84
2022/07/07 07:14:59;;;;;;;;;;;17.40;99.90;;;;;;5034843;28;19920;-83
2022/07/07 07:17:24;;;;;;;;;;;17.20;99.90;;;;;;5029928;28;20380;-83
2022/07/07 07:19:50;;;;;;;;;;;17.20;99.90;;;;;;5031003;28;20391;-83
2022/07/07 07:22:16;;;;;;;;;;;17.40;99.90;;;;;;5027423;28;19917;-84
2022/07/07 07:24:41;;;;;;;;;;;17.60;99.90;;;;;;5034140;28;20322;-83
2022/07/07 07:27:07;;;;;;;;;;;18.00;99.90;;;;;;5033688;28;19917;-83
2022/07/07 07:29:32;;;;;;;;;;;18.40;99.90;;;;;;5017664;28;19916;-83
2022/07/07 07:31:58;;;;;;;;;;;18.70;99.90;;;;;;5034160;28;19939;-84
2022/07/07 07:34:23;;;;;;;;;;;18.80;99.90;;;;;;5025688;28;19924;-83
2022/07/07 07:36:49;;;;;;;;;;;19.00;99.90;;;;;;5031402;28;19936;-83
2022/07/07 07:39:15;;;;;;;;;;;19.00;99.90;;;;;;5043369;28;19961;-84
2022/07/07 07:41:40;;;;;;;;;;;18.90;99.90;;;;;;5036184;28;21034;-84
2022/07/07 07:44:06;;;;;;;;;;;18.50;99.90;;;;;;5039712;28;19920;-83
2022/07/07 07:46:31;;;;;;;;;;;18.10;99.90;;;;;;5033926;28;19924;-84
2022/07/07 07:48:59;;;;;;;;;;;17.70;99.90;;;;;;5049044;28;20349;-84
2022/07/07 07:51:25;;;;;;;;;;;17.50;99.90;;;;;;5040844;28;19916;-84
2022/07/07 07:53:51;;;;;;;;;;;17.40;99.90;;;;;;5032126;28;19939;-84
2022/07/07 07:56:17;;;;;;;;;;;17.40;99.90;;;;;;5042656;28;19971;-84
2022/07/07 07:58:42;;;;;;;;;;;17.40;99.90;;;;;;5033165;28;19917;-84
2022/07/07 08:01:08;;;;;;;;;;;17.50;99.90;;;;;;5033076;28;20323;-82
2022/07/07 08:03:33;;;;;;;;;;;17.50;99.90;;;;;;5045869;28;20022;-83
2022/07/07 08:05:59;;;;;;;;;;;17.70;99.90;;;;;;5033137;28;19924;-84
2022/07/07 08:08:24;;;;;;;;;;;17.80;99.90;;;;;;5035808;28;19938;-84
2022/07/07 08:10:50;;;;;;;;;;;17.80;99.90;;;;;;5024205;28;19916;-83
2022/07/07 08:13:15;;;;;;;;;;;17.90;99.90;;;;;;5042662;28;20405;-83
2022/07/07 08:15:41;;;;;;;;;;;17.90;99.90;;;;;;5033229;28;19921;-83
2022/07/07 08:18:07;;;;;;;;;;;18.20;99.90;;;;;;5033079;28;19916;-83
2022/07/07 08:20:33;;;;;;;;;;;18.20;99.90;;;;;;5046182;28;20361;-84
2022/07/07 08:22:58;;;;;;;;;;;18.10;99.90;;;;;;5033355;28;19916;-83
2022/07/07 08:25:24;;;;;;;;;;;17.80;99.90;;;;;;5039017;28;19920;-83
2022/07/07 08:27:49;;;;;;;;;;;17.60;99.90;;;;;;5031351;28;19939;-83
2022/07/07 08:30:15;;;;;;;;;;;17.60;99.90;;;;;;5032617;28;19962;-83
2022/07/07 08:32:44;;;;;;;;;;;17.70;99.90;;;;;;5021076;28;19925;-83
2022/07/07 08:35:10;;;;;;;;;;;18.00;99.90;;;;;;5032459;28;19917;-83
2022/07/07 08:37:36;;;;;;;;;;;18.20;99.90;;;;;;5033020;28;20331;-83
2022/07/07 08:40:02;;;;;;;;;;;18.30;99.90;;;;;;5015626;28;19921;-83
2022/07/07 08:42:28;;;;;;;;;;;18.30;99.90;;;;;;5032480;28;19970;-83
2022/07/07 08:44:53;;;;;;;;;;;18.30;99.90;;;;;;5047105;28;20343;-83
2022/07/07 08:47:19;;;;;;;;;;;18.20;99.90;;;;;;4999382;28;19928;-84
2022/07/07 08:49:44;;;;;;;;;;;18.30;99.90;;;;;;5032737;28;19917;-84
2022/07/07 08:52:10;;;;;;;;;;;18.30;99.90;;;;;;5032456;28;20304;-84
2022/07/07 08:54:37;;;;;;;;;;;18.10;99.90;;;;;;5013698;28;19916;-83
2022/07/07 08:57:03;;;;;;;;;;;17.90;99.90;;;;;;5049242;28;20242;-83
2022/07/07 08:59:28;;;;;;;;;;;17.80;99.90;;;;;;5030402;28;19924;-83
2022/07/07 09:01:58;;;;;;;;;;;17.80;99.90;;;;;;5047654;28;19916;-84
2022/07/07 09:04:24;;;;;;;;;;;18.00;99.90;;;;;;5048790;28;19990;-83
2022/07/07 09:06:56;;;;;;;;;;;18.10;99.90;;;;;;5032683;28;20357;-83
2022/07/07 09:09:36;;;;;;;;;;;18.10;99.90;;;;;;5032484;28;20344;-83
2022/07/07 09:12:03;;;;;;;;;;;18.00;99.90;;;;;;5032399;28;20287;-83
2022/07/07 09:14:39;;;;;;;;;;;17.80;99.90;;;;;;5030027;28;19917;-83
2022/07/07 09:17:15;;;;;;;;;;;17.90;99.90;;;;;;5032262;28;20368;-83
2022/07/07 09:19:41;;;;;;;;;;;18.20;99.90;;;;;;5032271;28;19916;-83
2022/07/07 09:22:06;;;;;;;;;;;18.60;99.90;;;;;;5026928;28;19967;-84
2022/07/07 09:24:32;;;;;;;;;;;18.90;99.90;;;;;;4998526;28;19932;-84
2022/07/07 09:26:57;;;;;;;;;;;19.00;99.90;;;;;;4999107;28;20288;-83
2022/07/07 09:29:23;;;;;;;;;;;19.00;99.90;;;;;;5043183;28;19956;-83
2022/07/07 09:31:57;;;;;;;;;;;19.10;99.90;;;;;;5032028;28;20341;-83
2022/07/07 09:34:27;;;;;;;;;;;19.10;99.90;;;;;;5031830;28;20003;-83
2022/07/07 09:39:38;;;;;;;;;;;19.20;99.90;;;;;;5012331;28;19921;-83
2022/07/07 09:42:16;;;;;;;;;;;18.80;99.90;;;;;;5010089;28;19921;-83
2022/07/07 09:44:41;;;;;;;;;;;18.60;99.90;;;;;;5012424;28;19968;-83
2022/07/07 09:47:10;;;;;;;;;;;18.40;99.90;;;;;;5012409;28;20479;-83
2022/07/07 09:49:43;;;;;;;;;;;18.30;99.90;;;;;;5008168;28;20369;-83
2022/07/07 09:52:18;;;;;;;;;;;18.50;99.90;;;;;;5012491;28;19920;-83
2022/07/07 09:54:48;;;;;;;;;;;18.30;99.90;;;;;;5012753;28;20011;-83
2022/07/07 09:57:13;;;;;;;;;;;17.80;99.90;;;;;;4996189;28;19921;-83
2022/07/07 09:59:41;;;;;;;;;;;17.70;99.90;;;;;;5012013;28;20369;-84
2022/07/07 10:02:27;;;;;;;;;;;17.70;99.90;;;;;;5011705;28;20000;-83
2022/07/07 10:04:54;;;;;;;;;;;17.90;99.90;;;;;;5001838;28;19935;-84
2022/07/07 10:07:23;;;;;;;;;;;18.20;99.90;;;;;;5011089;28;19924;-84
2022/07/07 10:09:53;;;;;;;;;;;18.50;99.90;;;;;;5012348;28;20089;-84
2022/07/07 10:12:23;;;;;;;;;;;18.50;99.90;;;;;;5004620;28;20346;-84
2022/07/07 10:14:49;;;;;;;;;;;18.40;99.90;;;;;;5021161;28;19917;-84
2022/07/07 10:17:16;;;;;;;;;;;18.30;99.90;;;;;;5012061;28;19939;-84
2022/07/07 10:19:42;;;;;;;;;;;18.40;99.90;;;;;;5012375;28;19925;-83
2022/07/07 10:22:08;;;;;;;;;;;18.50;99.90;;;;;;5013617;28;20007;-83
2022/07/07 10:24:35;;;;;;;;;;;18.70;99.90;;;;;;5015430;28;19928;-83
2022/07/07 10:27:02;;;;;;;;;;;18.40;99.90;;;;;;5015534;28;20004;-84
2022/07/07 10:29:36;;;;;;;;;;;18.30;99.90;;;;;;5015154;28;19924;-84
2022/07/07 10:32:02;;;;;;;;;;;18.00;99.90;;;;;;5015329;28;19925;-84
2022/07/07 10:34:28;;;;;;;;;;;17.80;99.90;;;;;;5014995;28;19921;-84
2022/07/07 10:37:04;;;;;;;;;;;17.80;99.90;;;;;;5019242;28;19968;-84
2022/07/07 10:39:34;;;;;;;;;;;17.80;99.90;;;;;;5034005;28;19992;-83
2022/07/07 10:42:15;;;;;;;;;;;17.70;99.90;;;;;;5034786;28;19967;-84
2022/07/07 10:44:46;;;;;;;;;;;17.70;99.90;;;;;;5034697;28;20411;-84
2022/07/07 10:47:12;;;;;;;;;;;17.70;99.90;;;;;;5034777;28;19999;-84
2022/07/07 10:49:42;;;;;;;;;;;17.80;99.90;;;;;;5032628;28;20380;-84
2022/07/07 10:52:12;;;;;;;;;;;17.70;99.90;;;;;;5020431;28;20087;-83
2022/07/07 10:54:43;;;;;;;;;;;17.60;99.90;;;;;;5034411;28;19917;-84
2022/07/07 10:57:08;;;;;;;;;;;17.70;99.90;;;;;;5034545;28;19928;-84
2022/07/07 10:59:52;;;;;;;;;;;17.80;99.90;;;;;;5034775;28;19939;-83
2022/07/07 11:02:34;;;;;;;;;;;18.00;99.90;;;;;;5008287;28;19917;-84
2022/07/07 11:05:20;;;;;;;;;;;18.20;99.90;;;;;;5034908;28;19931;-84
2022/07/07 11:08:06;;;;;;;;;;;18.40;99.90;;;;;;5034505;28;20008;-83
2022/07/07 11:10:42;;;;;;;;;;;18.30;99.90;;;;;;5019269;28;19944;-83
2022/07/07 11:13:16;;;;;;;;;;;18.10;99.90;;;;;;5039210;28;19987;-83
2022/07/07 11:15:42;;;;;;;;;;;18.00;99.90;;;;;;5048119;28;19944;-83
2022/07/07 11:18:09;;;;;;;;;;;17.80;99.90;;;;;;5038955;28;19952;-83
2022/07/07 11:20:35;;;;;;;;;;;17.80;99.90;;;;;;5035717;28;19923;-83
2022/07/07 11:23:08;;;;;;;;;;;17.80;99.90;;;;;;5034145;28;19999;-83
2022/07/07 11:25:34;;;;;;;;;;;17.70;99.90;;;;;;5033740;28;19921;-83
2022/07/07 11:28:00;;;;;;;;;;;17.70;99.90;;;;;;5033591;28;19927;-82
2022/07/07 11:30:26;;;;;;;;;;;17.90;99.90;;;;;;5033941;28;19924;-83
2022/07/07 11:32:56;;;;;;;;;;;17.90;99.90;;;;;;5033191;28;20368;-83
2022/07/07 11:35:21;;;;;;;;;;;17.90;99.90;;;;;;5034014;28;19978;-83
2022/07/07 11:37:47;;;;;;;;;;;18.00;99.90;;;;;;5028214;28;19921;-82
2022/07/07 11:40:13;;;;;;;;;;;18.10;99.90;;;;;;5021886;28;19955;-84
2022/07/07 11:42:39;;;;;;;;;;;18.30;99.90;;;;;;5018260;28;20388;-83
2022/07/07 11:45:17;;;;;;;;;;;18.60;99.90;;;;;;5015901;28;19928;-83
2022/07/07 11:47:43;;;;;;;;;;;18.80;99.90;;;;;;5023108;28;20012;-84
2022/07/07 11:50:08;;;;;;;;;;;18.90;99.90;;;;;;5019015;28;19975;-82
2022/07/07 11:52:34;;;;;;;;;;;18.80;99.90;;;;;;5021308;28;19917;-83
2022/07/07 11:55:02;;;;;;;;;;;18.80;99.90;;;;;;5014067;28;19921;-83
2022/07/07 11:57:31;;;;;;;;;;;19.00;99.90;;;;;;5013598;28;19917;-83
2022/07/07 12:00:10;;;;;;;;;;;19.20;99.90;;;;;;5014145;28;20004;-82
2022/07/07 12:02:36;;;;;;;;;;;19.50;99.90;;;;;;5002767;28;19917;-83
2022/07/07 12:05:02;;;;;;;;;;;19.60;99.90;;;;;;5033906;28;20018;-83
2022/07/07 12:07:28;;;;;;;;;;;19.80;99.90;;;;;;5013271;28;20400;-84
2022/07/07 12:09:53;;;;;;;;;;;19.80;99.90;;;;;;5013906;28;19987;-82
2022/07/07 12:12:19;;;;;;;;;;;19.90;99.90;;;;;;5024055;28;19924;-82
2022/07/07 12:14:44;;;;;;;;;;;19.80;99.90;;;;;;5006916;28;20280;-83
2022/07/07 12:17:10;;;;;;;;;;;19.70;99.90;;;;;;5020452;28;20293;-83
2022/07/07 12:19:49;;;;;;;;;;;19.50;99.90;;;;;;5013001;28;19917;-83
2022/07/07 12:22:31;;;;;;;;;;;19.30;99.90;;;;;;5012874;28;19928;-83
2022/07/07 12:25:01;;;;;;;;;;;19.30;99.90;;;;;;5012690;28;19928;-83
2022/07/07 12:27:27;;;;;;;;;;;19.30;99.90;;;;;;5012871;28;20274;-83
2022/07/07 12:30:03;;;;;;;;;;;19.30;99.90;;;;;;5013378;28;19924;-83
2022/07/07 12:32:29;;;;;;;;;;;19.30;99.90;;;;;;5011510;28;20361;-83
2022/07/07 12:34:54;;;;;;;;;;;19.30;99.90;;;;;;5013257;28;19917;-82
2022/07/07 12:37:20;;;;;;;;;;;19.40;99.90;;;;;;5013410;28;19917;-83
2022/07/07 12:39:50;;;;;;;;;;;19.50;99.90;;;;;;5012690;28;19927;-83
2022/07/07 12:42:25;;;;;;;;;;;19.50;99.90;;;;;;5012620;28;19921;-82
2022/07/07 12:44:50;;;;;;;;;;;19.50;99.90;;;;;;5012646;28;19947;-83
2022/07/07 12:47:16;;;;;;;;;;;19.50;99.90;;;;;;5012348;28;20439;-82
2022/07/07 12:49:52;;;;;;;;;;;19.60;99.90;;;;;;5012363;28;19995;-83
2022/07/07 12:52:18;;;;;;;;;;;19.40;99.90;;;;;;4996391;28;19917;-83
2022/07/07 12:54:43;;;;;;;;;;;19.20;99.90;;;;;;5012426;28;19924;-83
2022/07/07 12:57:09;;;;;;;;;;;19.00;99.90;;;;;;5012299;28;19932;-83
2022/07/07 12:59:36;;;;;;;;;;;18.90;99.90;;;;;;5012803;28;19917;-83
2022/07/07 13:02:01;;;;;;;;;;;18.70;99.90;;;;;;5012380;28;19936;-83
2022/07/07 13:04:27;;;;;;;;;;;18.60;99.90;;;;;;5012604;28;20305;-83
2022/07/07 13:06:54;;;;;;;;;;;18.60;99.90;;;;;;4996252;28;19917;-83
2022/07/07 13:09:20;;;;;;;;;;;18.40;99.90;;;;;;5019651;28;19916;-83
2022/07/07 13:11:49;;;;;;;;;;;18.40;99.90;;;;;;5019624;28;19956;-83
2022/07/07 13:14:15;;;;;;;;;;;18.50;99.90;;;;;;5012603;28;19924;-83
2022/07/07 13:16:41;;;;;;;;;;;18.40;99.90;;;;;;5009849;28;19924;-83
2022/07/07 13:19:06;;;;;;;;;;;18.50;99.90;;;;;;5028640;28;19917;-83
2022/07/07 13:21:32;;;;;;;;;;;18.40;99.90;;;;;;4996024;28;19921;-83
2022/07/07 13:23:58;;;;;;;;;;;18.30;99.90;;;;;;5012287;28;20017;-83
2022/07/07 13:26:23;;;;;;;;;;;18.30;99.90;;;;;;4995352;28;19917;-83
2022/07/07 13:28:49;;;;;;;;;;;18.20;99.90;;;;;;5012037;28;19964;-83
2022/07/07 13:31:14;;;;;;;;;;;18.20;99.90;;;;;;5012190;28;19924;-83
2022/07/07 13:33:40;;;;;;;;;;;18.20;99.90;;;;;;5012573;28;19917;-83
2022/07/07 13:36:06;;;;;;;;;;;18.50;99.90;;;;;;5020241;28;19917;-83
2022/07/07 13:38:32;;;;;;;;;;;18.40;99.90;;;;;;5023669;28;19921;-83
2022/07/07 13:40:58;;;;;;;;;;;18.50;99.90;;;;;;5034939;28;20003;-84
2022/07/07 13:43:23;;;;;;;;;;;18.40;99.90;;;;;;5038510;28;19959;-83
2022/07/07 13:45:50;;;;;;;;;;;18.20;99.90;;;;;;5029981;28;19925;-84
2022/07/07 13:48:16;;;;;;;;;;;18.00;99.90;;;;;;5031594;28;19960;-83
2022/07/07 13:50:42;;;;;;;;;;;17.80;99.90;;;;;;5031680;28;19917;-83
2022/07/07 13:53:08;;;;;;;;;;;17.90;99.90;;;;;;5031939;28;20352;-84
2022/07/07 13:55:34;;;;;;;;;;;18.00;99.90;;;;;;5049341;28;19960;-84
2022/07/07 13:58:00;;;;;;;;;;;18.10;99.90;;;;;;5046714;28;20030;-83
2022/07/07 14:00:25;;;;;;;;;;;18.10;99.90;;;;;;5035851;28;20341;-83
2022/07/07 14:02:52;;;;;;;;;;;18.10;99.90;;;;;;5021192;28;19924;-83
2022/07/07 14:05:18;;;;;;;;;;;18.30;99.90;;;;;;5035439;28;19943;-84
2022/07/07 14:07:44;;;;;;;;;;;18.50;99.90;;;;;;5051972;28;20007;-83
2022/07/07 14:10:10;;;;;;;;;;;18.50;99.90;;;;;;5035435;28;19917;-83
2022/07/07 14:12:36;;;;;;;;;;;18.40;99.90;;;;;;5035412;28;19916;-83
2022/07/07 14:15:02;;;;;;;;;;;18.20;99.90;;;;;;5035729;28;19920;-83
2022/07/07 14:17:27;;;;;;;;;;;18.30;99.90;;;;;;5035691;28;20003;-83